sensor_id;sensor_type;location;lat;lon;timestamp;pressure;altitude;pressure_sealevel;temperature;humidity
8366;BME280;4220;42.502;24.188;2023-09-12T00:00:24;95541.53;;;15.33;96.48
8366;BME280;4220;42.502;24.188;2023-09-12T00:02:51;95538.78;;;15.28;96.77
8366;BME280;4220;42.502;24.188;2023-09-12T00:05:17;95534.38;;;14.82;100.00
8366;BME280;4220;42.502;24.188;2023-09-12T00:07:44;95541.19;;;14.61;100.00
8366;BME280;4220;42.502;24.188;2023-09-12T00:10:11;95539.91;;;14.64;100.00
8366;BME280;4220;42.502;24.188;2023-09-12T00:12:38;95536.06;;;14.71;98.97
8366;BME280;4220;42.502;24.188;2023-09-12T00:15:05;95539.53;;;14.72;98.06
8366;BME280;4220;42.502;24.188;2023-09-12T00:17:34;95522.75;;;14.48;99.06
8366;BME280;4220;42.502;24.188;2023-09-12T00:20:01;95524.41;;;14.03;100.00
8366;BME280;4220;42.502;24.188;2023-09-12T00:22:29;95529.81;;;13.96;100.00
8366;BME280;4220;42.502;24.188;2023-09-12T00:24:56;95529.19;;;13.59;100.00
8366;BME280;4220;42.502;24.188;2023-09-12T00:27:23;95532.38;;;13.80;100.00
8366;BME280;4220;42.502;24.188;2023-09-12T00:29:49;95535.75;;;14.10;100.00
8366;BME280;4220;42.502;24.188;2023-09-12T00:32:16;95531.22;;;14.22;99.20
8366;BME280;4220;42.502;24.188;2023-09-12T00:34:45;95533.75;;;13.94;99.52
8366;BME280;4220;42.502;24.188;2023-09-12T00:37:11;95526.59;;;13.83;100.00
8366;BME280;4220;42.502;24.188;2023-09-12T00:39:38;95525.75;;;13.94;100.00
8366;BME280;4220;42.502;24.188;2023-09-12T00:42:05;95535.06;;;14.14;98.40
8366;BME280;4220;42.502;24.188;2023-09-12T00:44:33;95530.84;;;14.30;97.30
8366;BME280;4220;42.502;24.188;2023-09-12T00:47:01;95523.09;;;14.17;97.58
8366;BME280;4220;42.502;24.188;2023-09-12T00:49:28;95534.69;;;14.11;99.29
8366;BME280;4220;42.502;24.188;2023-09-12T00:51:58;95530.63;;;14.08;100.00
8366;BME280;4220;42.502;24.188;2023-09-12T00:54:25;95532.03;;;14.11;100.00
8366;BME280;4220;42.502;24.188;2023-09-12T00:56:52;95503.53;;;13.88;98.79
8366;BME280;4220;42.502;24.188;2023-09-12T00:59:20;95518.00;;;14.04;98.03
8366;BME280;4220;42.502;24.188;2023-09-12T01:01:47;95533.75;;;13.94;99.07
8366;BME280;4220;42.502;24.188;2023-09-12T01:04:14;95533.88;;;13.99;98.31
8366;BME280;4220;42.502;24.188;2023-09-12T01:06:41;95537.84;;;14.08;97.71
8366;BME280;4220;42.502;24.188;2023-09-12T01:09:11;95481.72;;;13.80;97.43
8366;BME280;4220;42.502;24.188;2023-09-12T01:11:39;95526.09;;;14.20;95.29
8366;BME280;4220;42.502;24.188;2023-09-12T01:14:06;95538.53;;;14.38;95.35
8366;BME280;4220;42.502;24.188;2023-09-12T01:16:33;95542.50;;;14.47;93.86
8366;BME280;4220;42.502;24.188;2023-09-12T01:19:00;95548.16;;;14.51;93.68
8366;BME280;4220;42.502;24.188;2023-09-12T01:22:12;95546.09;;;14.41;94.12
8366;BME280;4220;42.502;24.188;2023-09-12T01:25:16;95554.53;;;14.15;95.82
8366;BME280;4220;42.502;24.188;2023-09-12T01:27:55;95537.59;;;14.09;95.73
8366;BME280;4220;42.502;24.188;2023-09-12T01:30:22;95538.63;;;14.08;96.21
8366;BME280;4220;42.502;24.188;2023-09-12T01:32:50;95504.69;;;13.81;96.78
8366;BME280;4220;42.502;24.188;2023-09-12T01:35:17;95536.44;;;13.94;97.54
8366;BME280;4220;42.502;24.188;2023-09-12T01:37:44;95530.72;;;13.78;98.02
8366;BME280;4220;42.502;24.188;2023-09-12T01:40:11;95536.06;;;13.67;100.00
8366;BME280;4220;42.502;24.188;2023-09-12T01:42:42;95531.75;;;13.54;100.00
8366;BME280;4220;42.502;24.188;2023-09-12T01:45:15;95533.75;;;13.70;100.00
8366;BME280;4220;42.502;24.188;2023-09-12T01:47:45;95537.44;;;13.58;100.00
8366;BME280;4220;42.502;24.188;2023-09-12T01:50:15;95527.84;;;13.68;100.00
8366;BME280;4220;42.502;24.188;2023-09-12T01:52:43;95535.59;;;13.70;99.52
8366;BME280;4220;42.502;24.188;2023-09-12T01:55:11;95535.94;;;13.73;99.60
8366;BME280;4220;42.502;24.188;2023-09-12T01:57:38;95531.59;;;13.49;100.00
8366;BME280;4220;42.502;24.188;2023-09-12T02:00:07;95546.53;;;13.39;100.00
8366;BME280;4220;42.502;24.188;2023-09-12T02:02:36;95540.78;;;13.53;100.00
8366;BME280;4220;42.502;24.188;2023-09-12T02:05:09;95543.03;;;13.68;100.00
8366;BME280;4220;42.502;24.188;2023-09-12T02:07:38;95543.22;;;13.66;100.00
8366;BME280;4220;42.502;24.188;2023-09-12T02:10:06;95511.34;;;13.48;100.00
8366;BME280;4220;42.502;24.188;2023-09-12T02:12:33;95544.41;;;13.70;100.00
8366;BME280;4220;42.502;24.188;2023-09-12T02:15:00;95548.13;;;13.81;99.88
8366;BME280;4220;42.502;24.188;2023-09-12T02:17:27;95544.31;;;13.89;98.50
8366;BME280;4220;42.502;24.188;2023-09-12T02:19:55;95546.63;;;13.97;97.81
8366;BME280;4220;42.502;24.188;2023-09-12T02:22:22;95542.69;;;13.88;97.82
8366;BME280;4220;42.502;24.188;2023-09-12T02:24:49;95544.59;;;13.57;100.00
8366;BME280;4220;42.502;24.188;2023-09-12T02:27:16;95549.69;;;13.59;100.00
8366;BME280;4220;42.502;24.188;2023-09-12T02:29:43;95546.38;;;13.63;100.00
8366;BME280;4220;42.502;24.188;2023-09-12T02:32:10;95552.38;;;13.59;100.00
8366;BME280;4220;42.502;24.188;2023-09-12T02:34:37;95546.13;;;13.53;100.00
8366;BME280;4220;42.502;24.188;2023-09-12T02:37:05;95551.09;;;13.50;100.00
8366;BME280;4220;42.502;24.188;2023-09-12T02:39:32;95546.91;;;13.54;100.00
8366;BME280;4220;42.502;24.188;2023-09-12T02:41:58;95541.94;;;13.57;100.00
8366;BME280;4220;42.502;24.188;2023-09-12T02:44:25;95544.59;;;13.57;100.00
8366;BME280;4220;42.502;24.188;2023-09-12T02:46:52;95539.22;;;13.34;100.00
8366;BME280;4220;42.502;24.188;2023-09-12T02:49:19;95543.13;;;13.32;100.00
8366;BME280;4220;42.502;24.188;2023-09-12T02:51:46;95537.31;;;13.12;100.00
8366;BME280;4220;42.502;24.188;2023-09-12T02:54:14;95431.19;;;12.37;100.00
8366;BME280;4220;42.502;24.188;2023-09-12T02:56:41;95546.31;;;13.10;100.00
8366;BME280;4220;42.502;24.188;2023-09-12T02:59:07;95542.75;;;13.17;100.00
8366;BME280;4220;42.502;24.188;2023-09-12T03:01:35;95550.13;;;13.15;100.00
8366;BME280;4220;42.502;24.188;2023-09-12T03:04:02;95541.94;;;13.16;100.00
8366;BME280;4220;42.502;24.188;2023-09-12T03:06:29;95545.56;;;13.22;100.00
8366;BME280;4220;42.502;24.188;2023-09-12T03:08:56;95551.13;;;13.32;100.00
8366;BME280;4220;42.502;24.188;2023-09-12T03:11:25;95549.22;;;13.39;100.00
8366;BME280;4220;42.502;24.188;2023-09-12T03:13:52;95548.06;;;13.46;100.00
8366;BME280;4220;42.502;24.188;2023-09-12T03:16:19;95546.19;;;13.35;100.00
8366;BME280;4220;42.502;24.188;2023-09-12T03:18:46;95539.81;;;13.36;100.00
8366;BME280;4220;42.502;24.188;2023-09-12T03:21:13;95551.66;;;13.52;100.00
8366;BME280;4220;42.502;24.188;2023-09-12T03:23:40;95521.81;;;13.32;100.00
8366;BME280;4220;42.502;24.188;2023-09-12T03:26:07;95550.19;;;13.56;100.00
8366;BME280;4220;42.502;24.188;2023-09-12T03:28:35;95549.50;;;13.60;100.00
8366;BME280;4220;42.502;24.188;2023-09-12T03:31:07;95546.13;;;13.53;100.00
8366;BME280;4220;42.502;24.188;2023-09-12T03:33:34;95553.28;;;13.41;100.00
8366;BME280;4220;42.502;24.188;2023-09-12T03:36:01;95553.59;;;13.33;100.00
8366;BME280;4220;42.502;24.188;2023-09-12T03:38:28;95549.13;;;13.16;100.00
8366;BME280;4220;42.502;24.188;2023-09-12T03:40:55;95560.44;;;13.11;100.00
8366;BME280;4220;42.502;24.188;2023-09-12T03:43:21;95559.19;;;13.14;100.00
8366;BME280;4220;42.502;24.188;2023-09-12T03:45:50;95551.34;;;13.00;100.00
8366;BME280;4220;42.502;24.188;2023-09-12T03:48:17;95539.03;;;12.70;100.00
8366;BME280;4220;42.502;24.188;2023-09-12T03:50:44;95554.09;;;12.21;100.00
8366;BME280;4220;42.502;24.188;2023-09-12T03:53:13;95558.19;;;12.42;100.00
8366;BME280;4220;42.502;24.188;2023-09-12T03:55:40;95557.38;;;12.41;100.00
8366;BME280;4220;42.502;24.188;2023-09-12T03:58:06;95542.94;;;12.13;100.00
8366;BME280;4220;42.502;24.188;2023-09-12T04:00:33;95555.97;;;12.21;100.00
8366;BME280;4220;42.502;24.188;2023-09-12T04:03:01;95550.25;;;12.17;100.00
8366;BME280;4220;42.502;24.188;2023-09-12T04:05:28;95552.06;;;12.23;100.00
8366;BME280;4220;42.502;24.188;2023-09-12T04:07:55;95554.97;;;12.15;100.00
8366;BME280;4220;42.502;24.188;2023-09-12T04:10:22;95550.03;;;12.19;100.00
8366;BME280;4220;42.502;24.188;2023-09-12T04:12:49;95573.56;;;12.40;100.00
8366;BME280;4220;42.502;24.188;2023-09-12T04:15:16;95567.06;;;12.54;100.00
8366;BME280;4220;42.502;24.188;2023-09-12T04:17:43;95563.59;;;12.35;100.00
8366;BME280;4220;42.502;24.188;2023-09-12T04:20:11;95521.19;;;11.98;100.00
8366;BME280;4220;42.502;24.188;2023-09-12T04:22:39;95559.56;;;12.26;100.00
8366;BME280;4220;42.502;24.188;2023-09-12T04:25:07;95570.94;;;12.33;100.00
8366;BME280;4220;42.502;24.188;2023-09-12T04:27:34;95559.44;;;12.39;100.00
8366;BME280;4220;42.502;24.188;2023-09-12T04:30:01;95566.25;;;12.35;100.00
8366;BME280;4220;42.502;24.188;2023-09-12T04:32:28;95560.47;;;12.38;100.00
8366;BME280;4220;42.502;24.188;2023-09-12T04:34:55;95559.31;;;12.53;100.00
8366;BME280;4220;42.502;24.188;2023-09-12T04:37:23;95554.84;;;12.46;100.00
8366;BME280;4220;42.502;24.188;2023-09-12T04:39:50;95557.31;;;12.48;100.00
8366;BME280;4220;42.502;24.188;2023-09-12T04:42:17;95562.47;;;12.61;100.00
8366;BME280;4220;42.502;24.188;2023-09-12T04:44:44;95560.78;;;12.67;100.00
8366;BME280;4220;42.502;24.188;2023-09-12T04:47:11;95570.81;;;12.83;100.00
8366;BME280;4220;42.502;24.188;2023-09-12T04:49:38;95562.53;;;12.91;100.00
8366;BME280;4220;42.502;24.188;2023-09-12T04:52:05;95562.06;;;12.94;100.00
8366;BME280;4220;42.502;24.188;2023-09-12T04:54:34;95567.69;;;13.04;100.00
8366;BME280;4220;42.502;24.188;2023-09-12T04:57:02;95531.84;;;12.88;100.00
8366;BME280;4220;42.502;24.188;2023-09-12T04:59:28;95572.84;;;13.17;100.00
8366;BME280;4220;42.502;24.188;2023-09-12T05:01:55;95570.69;;;13.26;100.00
8366;BME280;4220;42.502;24.188;2023-09-12T05:04:22;95569.97;;;13.48;100.00
8366;BME280;4220;42.502;24.188;2023-09-12T05:06:49;95554.44;;;13.57;100.00
8366;BME280;4220;42.502;24.188;2023-09-12T05:09:16;95571.66;;;13.72;100.00
8366;BME280;4220;42.502;24.188;2023-09-12T05:11:45;95568.88;;;13.79;100.00
8366;BME280;4220;42.502;24.188;2023-09-12T05:14:12;95559.97;;;13.85;100.00
8366;BME280;4220;42.502;24.188;2023-09-12T05:16:38;95571.91;;;14.06;100.00
8366;BME280;4220;42.502;24.188;2023-09-12T05:19:05;95562.63;;;14.08;100.00
8366;BME280;4220;42.502;24.188;2023-09-12T05:21:32;95531.66;;;13.84;100.00
8366;BME280;4220;42.502;24.188;2023-09-12T05:23:59;95559.19;;;14.19;100.00
8366;BME280;4220;42.502;24.188;2023-09-12T05:26:26;95574.28;;;14.37;100.00
8366;BME280;4220;42.502;24.188;2023-09-12T05:28:54;95566.59;;;14.52;100.00
8366;BME280;4220;42.502;24.188;2023-09-12T05:31:20;95563.47;;;14.67;99.10
8366;BME280;4220;42.502;24.188;2023-09-12T05:33:47;95565.28;;;14.78;98.07
8366;BME280;4220;42.502;24.188;2023-09-12T05:36:14;95567.81;;;14.84;97.83
8366;BME280;4220;42.502;24.188;2023-09-12T05:38:41;95560.59;;;14.96;97.30
8366;BME280;4220;42.502;24.188;2023-09-12T05:41:07;95568.59;;;15.08;96.72
8366;BME280;4220;42.502;24.188;2023-09-12T05:43:34;95567.41;;;15.16;95.76
8366;BME280;4220;42.502;24.188;2023-09-12T05:46:03;95568.16;;;15.28;95.37
8366;BME280;4220;42.502;24.188;2023-09-12T05:48:30;95561.38;;;15.37;94.01
8366;BME280;4220;42.502;24.188;2023-09-12T05:50:57;95567.50;;;15.49;93.12
8366;BME280;4220;42.502;24.188;2023-09-12T05:53:23;95536.72;;;15.46;92.38
8366;BME280;4220;42.502;24.188;2023-09-12T05:55:50;95580.03;;;15.77;91.60
8366;BME280;4220;42.502;24.188;2023-09-12T05:58:17;95574.53;;;15.83;91.01
8366;BME280;4220;42.502;24.188;2023-09-12T06:00:44;95574.63;;;15.88;90.81
8366;BME280;4220;42.502;24.188;2023-09-12T06:03:15;95570.47;;;15.97;90.43
8366;BME280;4220;42.502;24.188;2023-09-12T06:05:42;95578.66;;;16.07;89.68
8366;BME280;4220;42.502;24.188;2023-09-12T06:08:09;95573.47;;;16.17;89.20
8366;BME280;4220;42.502;24.188;2023-09-12T06:10:36;95575.50;;;16.10;89.74
8366;BME280;4220;42.502;24.188;2023-09-12T06:13:03;95574.13;;;16.24;89.39
8366;BME280;4220;42.502;24.188;2023-09-12T06:15:30;95581.34;;;16.41;88.65
8366;BME280;4220;42.502;24.188;2023-09-12T06:17:57;95537.63;;;16.35;87.21
8366;BME280;4220;42.502;24.188;2023-09-12T06:20:24;95577.31;;;16.76;86.32
8366;BME280;4220;42.502;24.188;2023-09-12T06:22:51;95578.06;;;16.93;85.00
8366;BME280;4220;42.502;24.188;2023-09-12T06:25:18;95569.59;;;17.02;84.41
8366;BME280;4220;42.502;24.188;2023-09-12T06:27:45;95579.50;;;17.23;83.45
8366;BME280;4220;42.502;24.188;2023-09-12T06:30:13;95581.31;;;17.39;81.73
8366;BME280;4220;42.502;24.188;2023-09-12T06:32:39;95522.81;;;17.09;80.36
8366;BME280;4220;42.502;24.188;2023-09-12T06:35:07;95574.16;;;17.49;79.93
8366;BME280;4220;42.502;24.188;2023-09-12T06:37:37;95558.03;;;17.44;79.15
8366;BME280;4220;42.502;24.188;2023-09-12T06:40:06;95576.16;;;17.54;79.35
8366;BME280;4220;42.502;24.188;2023-09-12T06:42:53;95579.28;;;17.51;79.31
8366;BME280;4220;42.502;24.188;2023-09-12T06:45:20;95573.56;;;17.64;78.91
8366;BME280;4220;42.502;24.188;2023-09-12T06:47:47;95581.06;;;17.94;76.85
8366;BME280;4220;42.502;24.188;2023-09-12T06:50:13;95579.09;;;18.16;76.32
8366;BME280;4220;42.502;24.188;2023-09-12T06:52:42;95583.31;;;18.39;74.68
8366;BME280;4220;42.502;24.188;2023-09-12T06:55:09;95559.16;;;18.39;73.56
8366;BME280;4220;42.502;24.188;2023-09-12T06:57:35;95556.31;;;18.55;72.65
8366;BME280;4220;42.502;24.188;2023-09-12T07:00:03;95578.50;;;18.82;72.26
8366;BME280;4220;42.502;24.188;2023-09-12T07:02:32;95581.81;;;18.94;71.11
8366;BME280;4220;42.502;24.188;2023-09-12T07:04:59;95587.28;;;19.15;70.11
8366;BME280;4220;42.502;24.188;2023-09-12T07:07:26;95584.63;;;19.25;68.64
8366;BME280;4220;42.502;24.188;2023-09-12T07:09:54;95589.81;;;19.41;68.13
8366;BME280;4220;42.502;24.188;2023-09-12T07:12:21;95588.81;;;19.58;67.25
8366;BME280;4220;42.502;24.188;2023-09-12T07:14:48;95565.13;;;19.54;65.51
8366;BME280;4220;42.502;24.188;2023-09-12T07:17:16;95587.50;;;19.65;63.87
8366;BME280;4220;42.502;24.188;2023-09-12T07:19:43;95590.41;;;19.53;63.91
8366;BME280;4220;42.502;24.188;2023-09-12T07:22:10;95596.06;;;19.57;63.56
8366;BME280;4220;42.502;24.188;2023-09-12T07:24:37;95584.53;;;19.67;62.91
8366;BME280;4220;42.502;24.188;2023-09-12T07:27:05;95581.56;;;19.63;63.14
8366;BME280;4220;42.502;24.188;2023-09-12T07:29:32;95588.88;;;19.83;62.54
8366;BME280;4220;42.502;24.188;2023-09-12T07:31:59;95592.66;;;20.02;60.79
8366;BME280;4220;42.502;24.188;2023-09-12T07:34:26;95596.16;;;20.12;58.63
8366;BME280;4220;42.502;24.188;2023-09-12T07:36:53;95588.41;;;20.26;58.37
8366;BME280;4220;42.502;24.188;2023-09-12T07:39:20;95571.97;;;20.33;58.57
8366;BME280;4220;42.502;24.188;2023-09-12T07:41:47;95587.03;;;20.59;58.57
8366;BME280;4220;42.502;24.188;2023-09-12T07:44:15;95594.00;;;20.80;58.09
8366;BME280;4220;42.502;24.188;2023-09-12T07:46:42;95589.91;;;20.98;57.44
8366;BME280;4220;42.502;24.188;2023-09-12T07:49:09;95587.22;;;21.13;56.62
8366;BME280;4220;42.502;24.188;2023-09-12T07:51:36;95583.69;;;21.17;55.90
8366;BME280;4220;42.502;24.188;2023-09-12T07:54:03;95594.97;;;21.29;55.43
8366;BME280;4220;42.502;24.188;2023-09-12T07:56:30;95581.75;;;21.28;54.76
8366;BME280;4220;42.502;24.188;2023-09-12T07:58:57;95583.06;;;21.30;52.63
8366;BME280;4220;42.502;24.188;2023-09-12T08:01:25;95587.19;;;21.18;51.83
8366;BME280;4220;42.502;24.188;2023-09-12T08:03:52;95583.03;;;21.40;51.25
8366;BME280;4220;42.502;24.188;2023-09-12T08:06:20;95587.28;;;21.57;51.05
8366;BME280;4220;42.502;24.188;2023-09-12T08:08:48;95581.84;;;21.67;50.14
8366;BME280;4220;42.502;24.188;2023-09-12T08:11:15;95579.59;;;21.84;49.76
8366;BME280;4220;42.502;24.188;2023-09-12T08:13:42;95573.84;;;21.95;48.69
8366;BME280;4220;42.502;24.188;2023-09-12T08:16:09;95583.44;;;22.11;47.39
8366;BME280;4220;42.502;24.188;2023-09-12T08:18:37;95579.03;;;22.26;45.38
8366;BME280;4220;42.502;24.188;2023-09-12T08:21:04;95582.38;;;22.46;45.25
8366;BME280;4220;42.502;24.188;2023-09-12T08:23:31;95590.94;;;22.53;44.44
8366;BME280;4220;42.502;24.188;2023-09-12T08:25:58;95551.69;;;22.32;42.93
8366;BME280;4220;42.502;24.188;2023-09-12T08:28:25;95585.63;;;22.43;42.72
8366;BME280;4220;42.502;24.188;2023-09-12T08:30:52;95556.06;;;22.28;43.65
8366;BME280;4220;42.502;24.188;2023-09-12T08:33:19;95581.28;;;22.47;42.29
8366;BME280;4220;42.502;24.188;2023-09-12T08:35:49;95551.13;;;22.35;43.85
8366;BME280;4220;42.502;24.188;2023-09-12T08:38:16;95578.38;;;22.72;42.98
8366;BME280;4220;42.502;24.188;2023-09-12T08:40:48;95572.63;;;22.79;42.92
8366;BME280;4220;42.502;24.188;2023-09-12T08:43:15;95556.75;;;22.72;42.54
8366;BME280;4220;42.502;24.188;2023-09-12T08:45:42;95578.88;;;23.03;43.00
8366;BME280;4220;42.502;24.188;2023-09-12T08:48:10;95575.69;;;23.20;43.14
8366;BME280;4220;42.502;24.188;2023-09-12T08:50:37;95572.50;;;23.42;43.21
8366;BME280;4220;42.502;24.188;2023-09-12T08:53:06;95574.66;;;23.63;42.97
8366;BME280;4220;42.502;24.188;2023-09-12T08:55:33;95577.28;;;23.87;43.59
8366;BME280;4220;42.502;24.188;2023-09-12T08:58:02;95574.16;;;24.17;43.39
8366;BME280;4220;42.502;24.188;2023-09-12T09:00:30;95556.03;;;24.31;43.89
8366;BME280;4220;42.502;24.188;2023-09-12T09:02:57;95568.16;;;24.52;44.42
8366;BME280;4220;42.502;24.188;2023-09-12T09:05:25;95569.38;;;24.60;44.94
8366;BME280;4220;42.502;24.188;2023-09-12T09:07:54;95565.97;;;24.54;45.04
8366;BME280;4220;42.502;24.188;2023-09-12T09:10:23;95555.63;;;24.56;44.97
8366;BME280;4220;42.502;24.188;2023-09-12T09:12:51;95560.97;;;24.61;44.96
8366;BME280;4220;42.502;24.188;2023-09-12T09:15:26;95553.28;;;24.50;45.12
8366;BME280;4220;42.502;24.188;2023-09-12T09:17:54;95568.47;;;24.64;45.04
8366;BME280;4220;42.502;24.188;2023-09-12T09:20:29;95560.41;;;24.78;45.08
8366;BME280;4220;42.502;24.188;2023-09-12T09:23:00;95561.25;;;24.92;44.93
8366;BME280;4220;42.502;24.188;2023-09-12T09:25:31;95558.53;;;25.19;44.31
8366;BME280;4220;42.502;24.188;2023-09-12T09:27:58;95555.22;;;25.09;43.88
8366;BME280;4220;42.502;24.188;2023-09-12T09:30:39;95557.34;;;25.25;44.56
8366;BME280;4220;42.502;24.188;2023-09-12T09:33:07;95477.81;;;24.84;44.83
8366;BME280;4220;42.502;24.188;2023-09-12T09:35:34;95550.00;;;25.40;44.63
8366;BME280;4220;42.502;24.188;2023-09-12T09:38:01;95561.03;;;25.43;44.26
8366;BME280;4220;42.502;24.188;2023-09-12T09:40:30;95526.34;;;25.26;44.99
8366;BME280;4220;42.502;24.188;2023-09-12T09:42:59;95534.72;;;25.57;43.92
8366;BME280;4220;42.502;24.188;2023-09-12T09:45:27;95558.78;;;25.86;44.23
8366;BME280;4220;42.502;24.188;2023-09-12T09:47:57;95551.59;;;26.04;44.01
8366;BME280;4220;42.502;24.188;2023-09-12T09:50:23;95544.66;;;26.11;43.23
8366;BME280;4220;42.502;24.188;2023-09-12T09:52:54;95533.38;;;26.04;43.59
8366;BME280;4220;42.502;24.188;2023-09-12T09:55:23;95553.63;;;26.34;43.17
8366;BME280;4220;42.502;24.188;2023-09-12T09:57:51;95544.81;;;26.59;42.74
8366;BME280;4220;42.502;24.188;2023-09-12T10:00:20;95539.69;;;26.80;42.17
8366;BME280;4220;42.502;24.188;2023-09-12T10:02:50;95537.38;;;26.95;41.73
8366;BME280;4220;42.502;24.188;2023-09-12T10:05:18;95552.16;;;27.11;41.75
8366;BME280;4220;42.502;24.188;2023-09-12T10:07:48;95549.38;;;27.34;40.65
8366;BME280;4220;42.502;24.188;2023-09-12T10:10:17;95545.22;;;27.36;40.87
8366;BME280;4220;42.502;24.188;2023-09-12T10:12:48;95543.28;;;27.37;40.93
8366;BME280;4220;42.502;24.188;2023-09-12T10:15:19;95528.16;;;27.13;40.32
8366;BME280;4220;42.502;24.188;2023-09-12T10:17:47;95534.13;;;27.24;40.62
8366;BME280;4220;42.502;24.188;2023-09-12T10:20:21;95539.97;;;27.48;40.81
8366;BME280;4220;42.502;24.188;2023-09-12T10:22:55;95534.91;;;27.72;40.57
8366;BME280;4220;42.502;24.188;2023-09-12T10:25:28;95525.31;;;27.83;40.05
8366;BME280;4220;42.502;24.188;2023-09-12T10:27:55;95535.78;;;28.16;38.98
8366;BME280;4220;42.502;24.188;2023-09-12T10:30:24;95537.81;;;28.44;38.65
8366;BME280;4220;42.502;24.188;2023-09-12T10:32:52;95508.66;;;28.28;37.54
8366;BME280;4220;42.502;24.188;2023-09-12T10:35:19;95528.53;;;28.37;37.64
8366;BME280;4220;42.502;24.188;2023-09-12T10:37:49;95534.28;;;28.44;37.89
8366;BME280;4220;42.502;24.188;2023-09-12T10:40:17;95512.63;;;28.47;37.32
8366;BME280;4220;42.502;24.188;2023-09-12T10:42:44;95516.81;;;28.62;36.99
8366;BME280;4220;42.502;24.188;2023-09-12T10:45:12;95514.34;;;28.78;36.42
8366;BME280;4220;42.502;24.188;2023-09-12T10:47:41;95507.81;;;28.99;36.12
8366;BME280;4220;42.502;24.188;2023-09-12T10:50:09;95524.13;;;28.79;35.94
8366;BME280;4220;42.502;24.188;2023-09-12T10:52:36;95510.03;;;28.60;35.97
8366;BME280;4220;42.502;24.188;2023-09-12T10:55:06;95510.22;;;28.46;36.63
8366;BME280;4220;42.502;24.188;2023-09-12T10:57:33;95507.16;;;28.65;36.33
8366;BME280;4220;42.502;24.188;2023-09-12T11:00:11;95511.81;;;29.02;35.63
8366;BME280;4220;42.502;24.188;2023-09-12T11:02:40;95499.72;;;29.29;35.25
8366;BME280;4220;42.502;24.188;2023-09-12T11:05:37;95506.63;;;29.55;34.88
8366;BME280;4220;42.502;24.188;2023-09-12T11:08:04;95492.59;;;29.86;35.29
8366;BME280;4220;42.502;24.188;2023-09-12T11:10:31;95415.69;;;29.67;34.08
8366;BME280;4220;42.502;24.188;2023-09-12T11:12:58;95497.38;;;30.51;34.29
8366;BME280;4220;42.502;24.188;2023-09-12T11:15:26;95503.31;;;30.32;32.49
8366;BME280;4220;42.502;24.188;2023-09-12T11:18:02;95460.97;;;29.56;33.94
8366;BME280;4220;42.502;24.188;2023-09-12T11:20:51;95489.50;;;29.67;33.53
8366;BME280;4220;42.502;24.188;2023-09-12T11:23:19;95485.75;;;29.71;33.40
8366;BME280;4220;42.502;24.188;2023-09-12T11:25:46;95484.53;;;29.90;34.07
8366;BME280;4220;42.502;24.188;2023-09-12T11:28:13;95480.16;;;30.30;33.68
8366;BME280;4220;42.502;24.188;2023-09-12T11:30:55;95482.94;;;30.75;33.22
8366;BME280;4220;42.502;24.188;2023-09-12T11:33:25;95480.78;;;30.80;31.89
8366;BME280;4220;42.502;24.188;2023-09-12T11:35:52;95470.41;;;30.86;32.34
8366;BME280;4220;42.502;24.188;2023-09-12T11:38:26;95476.16;;;31.05;32.08
8366;BME280;4220;42.502;24.188;2023-09-12T11:40:54;95480.28;;;31.35;31.70
8366;BME280;4220;42.502;24.188;2023-09-12T11:43:22;95467.25;;;31.56;31.21
8366;BME280;4220;42.502;24.188;2023-09-12T11:45:49;95439.72;;;31.53;30.51
8366;BME280;4220;42.502;24.188;2023-09-12T11:48:17;95479.66;;;31.78;30.10
8366;BME280;4220;42.502;24.188;2023-09-12T11:50:51;95468.38;;;31.67;30.76
8366;BME280;4220;42.502;24.188;2023-09-12T11:53:20;95406.28;;;31.35;31.70
8366;BME280;4220;42.502;24.188;2023-09-12T11:55:49;95464.44;;;31.93;31.02
8366;BME280;4220;42.502;24.188;2023-09-12T11:58:18;95472.78;;;32.24;29.82
8366;BME280;4220;42.502;24.188;2023-09-12T12:00:46;95432.16;;;32.14;30.04
8366;BME280;4220;42.502;24.188;2023-09-12T12:03:14;95463.84;;;32.82;29.58
8366;BME280;4220;42.502;24.188;2023-09-12T12:05:41;95464.91;;;32.93;29.15
8366;BME280;4220;42.502;24.188;2023-09-12T12:08:10;95453.63;;;32.83;29.25
8366;BME280;4220;42.502;24.188;2023-09-12T12:10:37;95472.88;;;32.99;29.06
8366;BME280;4220;42.502;24.188;2023-09-12T12:13:05;95457.50;;;33.10;28.10
8366;BME280;4220;42.502;24.188;2023-09-12T12:15:32;95444.88;;;33.24;28.23
8366;BME280;4220;42.502;24.188;2023-09-12T12:17:59;95456.38;;;33.61;27.96
8366;BME280;4220;42.502;24.188;2023-09-12T12:20:26;95452.28;;;33.90;27.34
8366;BME280;4220;42.502;24.188;2023-09-12T12:22:55;95448.00;;;33.73;27.52
8366;BME280;4220;42.502;24.188;2023-09-12T12:25:23;95446.69;;;33.67;27.65
8366;BME280;4220;42.502;24.188;2023-09-12T12:27:50;95445.63;;;33.91;27.64
8366;BME280;4220;42.502;24.188;2023-09-12T12:30:18;95451.06;;;34.26;27.05
8366;BME280;4220;42.502;24.188;2023-09-12T12:32:46;95438.03;;;34.42;26.71
8366;BME280;4220;42.502;24.188;2023-09-12T12:35:17;95438.16;;;34.49;26.38
8366;BME280;4220;42.502;24.188;2023-09-12T12:37:44;95442.06;;;34.48;26.48
8366;BME280;4220;42.502;24.188;2023-09-12T12:40:13;95436.28;;;34.34;26.28
8366;BME280;4220;42.502;24.188;2023-09-12T12:42:42;95445.28;;;34.31;26.60
8366;BME280;4220;42.502;24.188;2023-09-12T12:45:12;95447.75;;;34.36;26.45
8366;BME280;4220;42.502;24.188;2023-09-12T12:47:39;95442.78;;;33.87;26.93
8366;BME280;4220;42.502;24.188;2023-09-12T12:50:08;95443.22;;;33.70;26.90
8366;BME280;4220;42.502;24.188;2023-09-12T12:52:34;95446.19;;;33.81;26.94
8366;BME280;4220;42.502;24.188;2023-09-12T12:55:06;95426.22;;;33.49;27.57
8366;BME280;4220;42.502;24.188;2023-09-12T12:57:36;95429.88;;;33.72;27.32
8366;BME280;4220;42.502;24.188;2023-09-12T13:00:07;95437.00;;;33.92;27.50
8366;BME280;4220;42.502;24.188;2023-09-12T13:02:36;95438.38;;;34.40;26.97
8366;BME280;4220;42.502;24.188;2023-09-12T13:05:04;95438.31;;;34.56;26.43
8366;BME280;4220;42.502;24.188;2023-09-12T13:07:33;95436.22;;;34.49;26.53
8366;BME280;4220;42.502;24.188;2023-09-12T13:10:00;95442.00;;;34.63;26.08
8366;BME280;4220;42.502;24.188;2023-09-12T13:12:27;95436.13;;;34.46;26.36